• Join FlightAware (Why Join?)
  • Login
  • US Flag 
08:00AM EST


 

Airport Tracker/Info


-or-


 

Live Flight TrackerFlight Track Log ✈ SWA2975 ✈ 24-Jun-2013 ✈ KMDW - KALB

Flight Track Log - Related Links

Times and Time Zones

All times are in EDT time to prevent confusion due to time zone crossing. See the SWA2975 flight status page for this flight to view local times or setup timezone preferences in your user account.

Time Position Orientation Groundspeed Altitude Reporting Facility
EDT Latitude Longitude Course Direction KTS MPH feet Rate Location/Type
12:42AM 41.7860 -87.7480 323° Northwest 34 39  Level FlightAware
12:43AM 41.7890 -87.7500 334° Northwest 34 39 540 Level FlightAware
12:44AM 41.7900 -87.7440 77° East 31 36 660 Level FlightAware
12:44AM 41.7910 -87.7430 37° Northeast 30 35 900 Level FlightAware
12:44AM 41.7930 -87.7400 48° Northeast 30 35 1,080 Level FlightAware
12:45AM 41.7870 -87.7490 228° Southwest 115 132 1,740 Level FlightAware
12:45AM 41.7850 -87.7510 217° Southwest 135 155 3,420 Level FlightAware
12:45AM 41.7740 -87.7680 229° Southwest 160 184 1,600 3,480 Climbing FlightAware
12:46AM 41.7720 -87.7800 257° West 176 203 2,000 1,920 Climbing FlightAware
12:46AM 41.7800 -87.7970 302° West 210 242 2,500 1,260 Climbing FlightAware
12:46AM 41.7910 -87.8060 329° Northwest 242 278 2,600 900 Climbing FlightAware
12:46AM 41.8070 -87.8090 352° North 276 318 2,900 600 Climbing FlightAware
12:47AM 41.8370 -87.7930 22° Northeast 294 338 3,000  Climbing FlightAware
12:47AM 41.8490 -87.7670 58° Northeast 290 334 2,900 -240 Descending FlightAware
12:47AM 41.8520 -87.7420 81° East 284 327 2,900 180 Level FlightAware
12:47AM 41.8480 -87.7140 101° East 282 325 3,000 120 Climbing FlightAware
12:48AM 41.8440 -87.6680 97° East 283 326 3,000 960 Level FlightAware
12:48AM 41.8380 -87.6210 100° East 290 334 3,900 2,700 Climbing FlightAware
12:49AM 41.8320 -87.5700 99° East 298 343 5,500 3,420 Climbing FlightAware
12:49AM 41.8250 -87.5190 100° East 307 353 7,100 3,360 Climbing FlightAware
12:50AM 41.8200 -87.4880 102° East 315 362 8,000 3,120 Climbing FlightAware
12:50AM 41.8140 -87.4410 100° East 322 371 9,200 3,180 Climbing FlightAware
12:51AM 41.8030 -87.3540 100° East 328 377 11,700 3,000 Climbing FlightAware
12:51AM 41.7900 -87.2620 101° East 354 407 13,600 2,220 Climbing FlightAware
12:52AM 41.7780 -87.1790 101° East 386 444 14,700 2,040 Climbing FlightAware
12:53AM 41.7640 -87.0640 99° East 410 472 16,500 2,340 Climbing FlightAware
12:53AM 41.7630 -86.9570 91° East 422 486 18,200 2,460 Climbing FlightAware
12:54AM 41.7640 -86.8500 89° East 431 496 19,900 2,280 Climbing FlightAware
12:55AM 41.7650 -86.7300 89° East 446 513 21,400 1,920 Climbing FlightAware
12:55AM 41.7660 -86.6340 89° East 455 524 22,500 2,160 Climbing FlightAware
12:56AM 41.7680 -86.4960 89° East 450 518 24,500 2,220 Climbing FlightAware
12:57AM 41.7680 -86.3840 90° East 450 518 25,900 1,800 Climbing FlightAware
12:58AM 41.7770 -86.2700 84° East 459 528 27,100 1,500 Climbing FlightAware
12:58AM 41.7980 -86.1460 77° East 471 542 28,100 1,320 Climbing FlightAware
12:59AM 41.8150 -86.0510 76° East 478 550 28,800 1,260 Climbing FlightAware
01:00AM 41.8370 -85.9170 78° East 486 559 29,800 1,500 Climbing FlightAware
01:00AM 41.8600 -85.7800 77° East 483 556 31,100 1,620 Climbing FlightAware
01:01AM 41.8760 -85.6820 78° East 481 554 32,000 1,500 Climbing FlightAware
01:01AM 41.8880 -85.6100 77° East 481 554 32,600 1,260 Climbing FlightAware
01:02AM 41.9090 -85.4850 77° East 483 556 33,500 1,260 Climbing FlightAware
01:03AM 41.9310 -85.3490 78° East 483 556 34,500 1,020 Climbing FlightAware
01:04AM 41.9480 -85.2380 78° East 478 550 35,000 360 Climbing FlightAware
01:04AM 41.9510 -85.1180 88° East 473 544 35,000  Level FlightAware
01:05AM 41.9510 -84.9970 90° East 473 544 35,000  Level FlightAware
01:06AM 41.9610 -84.8740 84° East 478 550 35,000  Level FlightAware
01:06AM 41.9780 -84.7380 80° East 479 551 35,000  Level FlightAware
01:07AM 41.9920 -84.6230 81° East 479 551 35,000  Level FlightAware
01:08AM 42.0070 -84.4920 81° East 479 551 35,000  Level FlightAware
01:09AM 42.0220 -84.3690 81° East 478 550 35,000  Level FlightAware
01:09AM 42.0360 -84.2480 81° East 478 550 35,000  Level FlightAware
01:10AM 42.0490 -84.1320 81° East 478 550 35,000  Level FlightAware
01:10AM 42.0620 -84.0240 81° East 479 551 35,000  Level FlightAware
01:11AM 42.0820 -83.8470 81° East 480 552 35,000  Level FlightAware
01:12AM 42.0940 -83.7350 82° East 481 554 35,000  Level FlightAware
01:13AM 42.1080 -83.6100 81° East 481 554 35,000  Level FlightAware
01:14AM 42.1200 -83.4980 82° East 481 554 35,000  Level FlightAware
01:14AM 42.1330 -83.3800 82° East 481 554 35,000  Level FlightAware
01:15AM 42.1460 -83.2600 82° East 479 551 35,000  Level FlightAware
01:16AM 42.1650 -83.0770 82° East 481 554 35,000  Level FlightAware
01:16AM 42.1750 -82.9820 82° East 484 557 35,000  Level FlightAware
01:17AM 42.1920 -82.8220 82° East 485 558 35,000  Level FlightAware
01:18AM 42.2030 -82.7120 82° East 486 559 35,000  Level FlightAware
01:19AM 42.2160 -82.5900 82° East 487 560 35,000  Level FlightAware
01:19AM 42.2280 -82.4650 83° East 486 559 35,000  Level FlightAware
01:20AM 42.2440 -82.3050 82° East 482 555 35,000  Level FlightAware
01:21AM 42.2590 -82.1560 82° East 482 555 35,000  Level FlightAware
01:22AM 42.2700 -82.0370 83° East 481 554 35,000  Level FlightAware
01:22AM 42.2820 -81.9140 82° East 481 554 35,000  Level FlightAware
01:23AM 42.2980 -81.7420 83° East 482 555 35,000  Level FlightAware
01:24AM 42.3100 -81.6100 83° East 481 554 35,000  Level FlightAware
01:25AM 42.3220 -81.4840 83° East 480 552 35,000  Level FlightAware
01:26AM 42.3350 -81.3420 83° East 480 552 35,000  Level FlightAware
01:26AM 42.3450 -81.2280 83° East 478 550 35,000  Level FlightAware
01:27AM 42.3570 -81.0980 83° East 476 548 35,000  Level FlightAware
01:28AM 42.3670 -80.9750 84° East 475 547 35,000  Level FlightAware
01:28AM 42.3770 -80.8590 83° East 473 544 35,000  Level FlightAware
01:29AM 42.3880 -80.7290 83° East 474 545 35,000  Level FlightAware
01:30AM 42.3980 -80.6130 83° East 473 544 35,000  Level FlightAware
01:30AM 42.4080 -80.4920 84° East 473 544 35,000  Level FlightAware
01:31AM 42.4180 -80.3650 84° East 472 543 35,000  Level FlightAware
01:32AM 42.4290 -80.2350 83° East 472 543 35,000  Level FlightAware
01:32AM 42.4380 -80.1160 84° East 472 543 35,000  Level FlightAware
01:33AM 42.4480 -79.9940 84° East 472 543 35,000  Level FlightAware
01:34AM 42.4560 -79.8930 84° East 471 542 35,000  Level FlightAware
01:35AM 42.4670 -79.7430 84° East 471 542 35,000  Level FlightAware
01:35AM 42.4760 -79.6230 84° East 471 542 35,000  Level FlightAware
01:36AM 42.4850 -79.5000 84° East 471 542 35,000  Level FlightAware
01:37AM 42.4950 -79.3700 84° East 471 542 35,000  Level FlightAware
01:37AM 42.5030 -79.2470 85° East 473 544 35,000  Level FlightAware
01:38AM 42.5120 -79.1250 84° East 473 544 35,000  Level FlightAware
01:39AM 42.5210 -79.0000 84° East 473 544 35,000  Level FlightAware
01:39AM 42.5290 -78.8810 85° East 472 543 35,000  Level FlightAware
01:40AM 42.5370 -78.7670 85° East 471 542 35,000  Level FlightAware
01:41AM 42.5450 -78.6320 85° East 471 542 35,000  Level FlightAware
01:42AM 42.5530 -78.5140 85° East 472 543 35,000  Level FlightAware
01:42AM 42.5620 -78.3810 85° East 473 544 35,000  Level FlightAware
01:43AM 42.5690 -78.2600 85° East 474 545 35,000  Level FlightAware
01:44AM 42.5770 -78.1410 85° East 475 547 35,000  Level FlightAware
01:44AM 42.5850 -78.0100 85° East 476 548 35,000 -180 Level FlightAware
01:45AM 42.5920 -77.8850 86° East 475 547 34,800 -660 Descending FlightAware
01:46AM 42.5980 -77.7780 86° East 477 549 34,200 -1,020 Descending FlightAware
01:47AM 42.6070 -77.6320 85° East 481 554 33,400 -960 Descending FlightAware
01:47AM 42.6140 -77.5120 85° East 485 558 32,800 -960 Descending FlightAware
01:48AM 42.6210 -77.3820 86° East 490 564 32,100 -960 Descending FlightAware
01:49AM 42.6270 -77.2590 86° East 490 564 31,500 -960 Descending FlightAware
01:49AM 42.6340 -77.1270 86° East 483 556 30,800 -1,020 Descending FlightAware
01:50AM 42.6410 -77.0050 85° East 482 555 30,100 -1,020 Descending FlightAware
01:51AM 42.6470 -76.8750 86° East 479 551 29,400 -840 Descending FlightAware
01:51AM 42.6530 -76.7550 86° East 470 541 29,000 -300 Descending FlightAware
01:52AM 42.6590 -76.6270 86° East 470 541 29,000  Level FlightAware
01:53AM 42.6630 -76.5190 87° East 470 541 29,000  Level FlightAware
01:53AM 42.6590 -76.3820 92° East 470 541 29,000  Level FlightAware
01:54AM 42.6550 -76.2560 92° East 470 541 29,000  Level FlightAware
01:55AM 42.6510 -76.1290 92° East 471 542 29,000  Level FlightAware
01:56AM 42.6470 -76.0050 92° East 471 542 29,000  Level FlightAware
01:56AM 42.6430 -75.8820 92° East 472 543 29,000  Level FlightAware
01:57AM 42.6390 -75.7630 93° East 472 543 29,000 -660 Level FlightAware
01:58AM 42.6350 -75.6330 92° East 473 544 28,100 -2,220 Descending FlightAware
01:58AM 42.6310 -75.5090 92° East 471 542 25,900 -3,000 Descending FlightAware
01:59AM 42.6260 -75.3910 93° East 463 533 24,000 -2,700 Descending FlightAware
02:00AM 42.6220 -75.2770 93° East 454 522 22,300 -2,700 Descending FlightAware
02:00AM 42.6170 -75.1540 93° East 443 510 20,300 -2,700 Descending FlightAware
02:01AM 42.6120 -75.0390 93° East 432 497 18,500 -2,640 Descending FlightAware
02:02AM 42.6080 -74.9320 93° East 423 487 16,700 -2,640 Descending FlightAware
02:03AM 42.6000 -74.7530 93° East 409 471 13,800 -1,680 Descending FlightAware
02:04AM 42.5980 -74.6540 92° East 408 470 13,500 -240 Descending FlightAware
02:04AM 42.5960 -74.5800 92° East 408 470 13,500 -1,560 Level FlightAware
02:06AM 42.5858 -74.3886 92° East 330 380 10,700 -1,920 Descending Boston Center
02:07AM 42.5794 -74.2786 94° East 324 373 9,200 -1,860 Descending Boston Center
02:08AM 42.5731 -74.1542 94° East 308 354 7,000 -1,800 Descending Boston Center
02:09AM 42.5683 -74.0497 93° East 308 354 5,700 -1,080 Descending Boston Center
02:10AM 42.5636 -73.9314 93° East 297 342 4,900 -900 Descending Boston Center
02:11AM 42.5647 -73.8328 89° East 266 306 4,000 -960 Descending Boston Center
02:12AM 42.6111 -73.8028 25° Northeast 181 208 3,000 -1,140 Descending Boston Center
02:13AM 42.6589 -73.8067 357° North 160 184 1,800 -600 Descending Boston Center
02:14AM 42.6947 -73.7733 34° Northeast 160 184 1,800  Level Boston Center
02:19AM 42.7525 -73.7770 221° Southwest  Level FlightAware Approximate